Time;durP1;ratioP1;P1;durP2;ratioP2;P2;SDS_P1;SDS_P2;PMS_P1;PMS_P2;Temp;Humidity;BMP_temperature;BMP_pressure;BME280_temperature;BME280_humidity;BME280_pressure;Samples;Min_cycle;Max_cycle;Signal;HPM_P1;HPM_P2
2022/05/20 00:01:10;;;;;;;25.50;20.17;;;;;;;17.08;75.10;100368.88;4976254;28;20058;-85
2022/05/20 00:03:39;;;;;;;22.23;18.38;;;;;;;17.04;74.99;100371.75;4976945;28;20055;-84
2022/05/20 00:06:05;;;;;;;22.98;19.33;;;;;;;17.01;74.86;100379.91;4977868;28;20062;-85
2022/05/20 00:08:32;;;;;;;22.80;18.27;;;;;;;16.98;75.19;100382.81;4959958;28;20050;-85
2022/05/20 00:10:58;;;;;;;24.17;20.05;;;;;;;16.95;75.51;100383.03;4978249;28;20055;-84
2022/05/20 00:13:26;;;;;;;21.25;19.00;;;;;;;16.93;75.72;100384.94;4976570;28;20066;-85
2022/05/20 00:15:53;;;;;;;24.83;19.10;;;;;;;16.92;76.01;100383.25;4960008;28;20058;-85
2022/05/20 00:18:21;;;;;;;22.20;17.45;;;;;;;16.90;75.99;100378.03;4977302;28;20086;-85
2022/05/20 00:20:47;;;;;;;20.10;17.67;;;;;;;16.90;76.13;100378.03;4976807;28;20107;-85
2022/05/20 00:23:14;;;;;;;21.13;18.55;;;;;;;16.91;76.11;100378.91;4956640;28;20509;-87
2022/05/20 00:25:46;;;;;;;26.08;19.65;;;;;;;16.91;75.96;100379.75;4974576;28;20129;-84
2022/05/20 00:28:39;;;;;;;23.85;19.70;;;;;;;16.93;75.86;100380.47;4975666;28;20053;-84
2022/05/20 00:31:09;;;;;;;25.17;20.57;;;;;;;16.92;75.39;100378.78;4972710;28;20089;-85
2022/05/20 00:33:40;;;;;;;27.92;19.20;;;;;;;16.93;75.42;100387.59;4974888;28;20349;-83
2022/05/20 00:36:07;;;;;;;23.52;19.05;;;;;;;16.91;75.31;100390.41;4974914;28;20058;-84
2022/05/20 00:38:34;;;;;;;31.50;21.08;;;;;;;16.89;75.17;100394.09;4975409;28;20575;-84
2022/05/20 00:41:02;;;;;;;23.63;19.73;;;;;;;16.86;75.01;100386.38;4973889;28;20059;-83
2022/05/20 00:43:35;;;;;;;21.67;19.02;;;;;;;16.79;74.61;100393.97;4974483;28;20512;-84
2022/05/20 00:46:08;;;;;;;21.73;18.10;;;;;;;16.77;74.62;100390.53;4975225;28;20055;-84
2022/05/20 00:48:36;;;;;;;21.52;18.50;;;;;;;16.74;74.83;100388.97;4957266;28;20507;-85
2022/05/20 00:51:09;;;;;;;19.48;17.38;;;;;;;16.70;74.47;100392.81;4973979;28;20050;-83
2022/05/20 00:53:46;;;;;;;23.02;19.08;;;;;;;16.66;74.14;100394.00;4975648;28;20417;-85
2022/05/20 00:56:16;;;;;;;24.55;17.90;;;;;;;16.63;74.61;100386.25;4956334;28;20492;-84
2022/05/20 00:58:43;;;;;;;21.33;18.30;;;;;;;16.59;74.66;100393.59;4971651;28;20059;-84
2022/05/20 01:01:10;;;;;;;26.45;20.08;;;;;;;16.56;74.95;100380.50;4972877;28;20460;-84
2022/05/20 01:03:38;;;;;;;22.45;19.10;;;;;;;16.51;75.25;100386.16;4973574;28;20483;-83
2022/05/20 01:06:07;;;;;;;24.38;19.33;;;;;;;16.49;75.30;100390.72;4973153;28;20050;-85
2022/05/20 01:08:34;;;;;;;22.75;18.88;;;;;;;16.47;75.16;100381.19;4973525;28;20051;-83
2022/05/20 01:11:00;;;;;;;20.55;18.10;;;;;;;16.44;75.51;100378.75;4973566;28;20062;-86
2022/05/20 01:13:29;;;;;;;25.10;20.40;;;;;;;16.41;75.71;100380.66;4972945;28;20054;-84
2022/05/20 01:15:56;;;;;;;25.83;19.58;;;;;;;16.40;76.06;100376.31;4973518;28;20504;-84
2022/05/20 01:18:24;;;;;;;27.77;19.40;;;;;;;16.40;76.64;100386.94;4956129;28;20125;-83
2022/05/20 01:20:55;;;;;;;27.13;20.48;;;;;;;16.41;76.29;100379.84;4972808;28;20543;-84
2022/05/20 01:23:24;;;;;;;20.55;18.55;;;;;;;16.44;76.90;100389.41;4974132;28;20058;-85
2022/05/20 01:25:54;;;;;;;24.92;20.40;;;;;;;16.47;76.91;100390.00;4974409;28;20433;-86
2022/05/20 01:28:23;;;;;;;24.05;19.85;;;;;;;16.50;77.02;100388.94;4973979;28;20069;-87
2022/05/20 01:31:03;;;;;;;23.77;17.90;;;;;;;16.49;76.18;100381.94;4974244;28;20059;-85
2022/05/20 01:33:53;;;;;;;20.35;17.00;;;;;;;16.54;76.42;100382.44;4956327;28;20063;-83
2022/05/20 01:36:24;;;;;;;19.92;17.65;;;;;;;16.59;77.14;100390.09;4973277;28;20058;-84
2022/05/20 01:38:54;;;;;;;20.05;17.17;;;;;;;16.62;77.09;100389.84;4973863;28;20096;-84
2022/05/20 01:41:42;;;;;;;20.98;16.98;;;;;;;16.61;75.40;100394.34;4973573;28;20109;-84
2022/05/20 01:44:31;;;;;;;18.48;14.68;;;;;;;16.64;75.31;100398.59;4974401;28;20058;-84
2022/05/20 01:47:25;;;;;;;15.82;14.00;;;;;;;16.65;74.86;100394.94;4973105;28;20085;-84
2022/05/20 01:50:00;;;;;;;18.10;14.73;;;;;;;16.68;75.23;100400.06;4973058;28;20523;-87
2022/05/20 01:52:41;;;;;;;16.67;14.35;;;;;;;16.65;74.81;100401.13;4974007;28;20460;-84
2022/05/20 01:55:15;;;;;;;18.52;15.82;;;;;;;16.67;75.95;100393.88;4974063;28;20054;-83
2022/05/20 01:58:16;;;;;;;20.52;16.58;;;;;;;16.64;74.96;100399.41;4956841;28;20058;-87
2022/05/20 02:00:46;;;;;;;17.75;14.90;;;;;;;16.71;76.26;100398.97;4891992;28;20051;-84
2022/05/20 02:03:22;;;;;;;16.17;14.35;;;;;;;16.70;75.28;100394.63;4974687;28;20054;-87
2022/05/20 02:06:01;;;;;;;16.70;14.43;;;;;;;16.70;74.61;100400.78;4975036;28;20404;-86
2022/05/20 02:08:39;;;;;;;17.88;14.40;;;;;;;16.71;74.81;100399.81;4974768;28;20058;-85
2022/05/20 02:11:18;;;;;;;16.52;13.85;;;;;;;16.73;75.59;100400.56;4960376;28;20078;-84
2022/05/20 02:13:53;;;;;;;18.50;14.15;;;;;;;16.73;74.43;100397.91;4977919;28;20576;-85
2022/05/20 02:16:27;;;;;;;16.40;13.23;;;;;;;16.74;74.93;100402.25;4977591;28;20492;-86
2022/05/20 02:19:06;;;;;;;14.88;12.82;;;;;;;16.74;74.55;100388.97;4959814;28;20479;-84
2022/05/20 02:21:38;;;;;;;13.02;11.18;;;;;;;16.78;74.83;100401.06;4960470;28;20140;-86
2022/05/20 02:24:10;;;;;;;14.30;12.13;;;;;;;16.80;75.29;100400.97;4978277;28;20051;-84
2022/05/20 02:26:52;;;;;;;18.10;13.73;;;;;;;16.77;74.12;100399.38;4977598;28;20046;-84
2022/05/20 02:29:25;;;;;;;13.82;12.32;;;;;;;16.81;74.55;100392.03;4979090;28;20047;-84
2022/05/20 02:32:08;;;;;;;13.40;12.00;;;;;;;16.79;73.79;100378.84;4979035;28;20543;-85
2022/05/20 02:34:35;;;;;;;17.08;13.43;;;;;;;16.83;74.97;100374.16;4961290;28;20109;-84
2022/05/20 02:37:27;;;;;;;14.70;13.23;;;;;;;16.77;73.31;100372.78;4979007;28;20054;-85
2022/05/20 02:39:55;;;;;;;14.85;12.77;;;;;;;16.83;74.77;100365.31;4978579;28;20094;-86
2022/05/20 02:42:22;;;;;;;13.52;12.13;;;;;;;16.80;74.55;100356.63;4978117;28;20047;-84
2022/05/20 02:44:49;;;;;;;16.75;12.63;;;;;;;16.79;74.54;100352.25;4978918;28;20063;-85
2022/05/20 02:47:17;;;;;;;14.45;13.05;;;;;;;16.78;74.85;100347.91;4978421;28;20063;-84
2022/05/20 02:49:43;;;;;;;12.55;11.27;;;;;;;16.79;75.15;100354.91;4979392;28;20539;-83
2022/05/20 02:52:10;;;;;;;16.00;12.63;;;;;;;16.78;74.51;100347.91;4960400;28;20059;-84
2022/05/20 02:54:37;;;;;;;13.93;12.45;;;;;;;16.78;74.52;100347.03;4978942;28;20059;-84
2022/05/20 02:57:04;;;;;;;13.45;12.05;;;;;;;16.77;74.34;100345.34;4979005;28;20328;-84
2022/05/20 03:05:02;;;;;;;13.73;12.27;;;;;;;16.78;74.83;100350.56;4978422;28;20058;-84
2022/05/20 03:07:28;;;;;;;17.38;12.63;;;;;;;16.79;74.61;100351.41;4978920;28;20059;-85
2022/05/20 03:09:55;;;;;;;12.90;11.60;;;;;;;16.78;74.55;100349.69;4979796;28;20386;-87
2022/05/20 03:12:22;;;;;;;12.25;10.20;;;;;;;16.78;74.44;100353.22;4978774;28;20066;-85
2022/05/20 03:14:49;;;;;;;12.15;10.75;;;;;;;16.80;74.63;100350.44;4979470;28;20054;-86
2022/05/20 03:17:15;;;;;;;13.25;11.20;;;;;;;16.81;74.65;100349.47;4979468;28;20074;-85
2022/05/20 03:19:42;;;;;;;15.15;11.25;;;;;;;16.82;74.62;100334.38;4962430;28;20058;-87
2022/05/20 03:22:08;;;;;;;15.43;11.70;;;;;;;16.84;74.60;100351.91;4978097;28;20523;-85
2022/05/20 03:24:35;;;;;;;15.05;12.43;;;;;;;16.84;74.56;100353.72;4962059;28;20058;-85
2022/05/20 03:27:03;;;;;;;13.00;11.65;;;;;;;16.85;74.78;100353.59;4978622;28;20492;-87
2022/05/20 03:29:32;;;;;;;15.23;12.85;;;;;;;16.88;74.97;100365.81;4978568;28;20105;-87
2022/05/20 03:31:59;;;;;;;13.93;12.40;;;;;;;16.89;75.21;100355.09;4961306;28;20062;-83
2022/05/20 03:34:25;;;;;;;12.10;10.65;;;;;;;16.91;75.48;100365.59;4961565;28;20109;-87
2022/05/20 03:36:52;;;;;;;14.85;13.27;;;;;;;16.92;75.12;100362.84;4979003;28;20113;-86
2022/05/20 03:39:21;;;;;;;15.38;12.50;;;;;;;16.94;74.46;100362.72;4978857;28;20492;-84
2022/05/20 03:41:47;;;;;;;14.43;12.63;;;;;;;16.97;74.63;100359.81;4978661;28;20113;-86
2022/05/20 03:44:16;;;;;;;15.68;13.10;;;;;;;16.97;74.17;100356.34;4979386;28;20058;-86
2022/05/20 03:46:51;;;;;;;14.10;12.70;;;;;;;16.94;73.04;100363.56;4978933;28;20460;-85
2022/05/20 03:49:20;;;;;;;14.25;12.75;;;;;;;16.97;73.84;100365.13;4960958;28;20492;-86
2022/05/20 03:51:48;;;;;;;13.68;12.23;;;;;;;16.96;73.81;100366.09;4979591;28;20047;-87
2022/05/20 03:54:17;;;;;;;14.57;13.10;;;;;;;16.94;73.79;100378.69;4979776;28;20105;-86
2022/05/20 03:56:43;;;;;;;14.80;13.23;;;;;;;16.93;73.86;100383.16;4980154;28;20508;-84
2022/05/20 03:59:10;;;;;;;13.52;12.00;;;;;;;16.93;74.25;100376.97;4979072;28;20409;-86
2022/05/20 04:01:57;;;;;;;14.88;13.40;;;;;;;16.92;74.07;100376.13;4979758;28;20054;-83
2022/05/20 04:04:36;;;;;;;17.38;12.85;;;;;;;16.90;72.87;100385.19;4979054;28;20051;-85
2022/05/20 04:07:09;;;;;;;13.95;12.50;;;;;;;16.93;73.56;100392.91;4974711;28;20047;-86
2022/05/20 04:09:36;;;;;;;14.15;12.65;;;;;;;16.97;74.43;100380.25;4974650;28;20043;-85
2022/05/20 04:12:06;;;;;;;14.57;12.90;;;;;;;16.96;74.04;100387.38;4981613;28;20054;-84
2022/05/20 04:14:33;;;;;;;13.55;12.15;;;;;;;16.98;74.52;100380.16;4989682;28;20120;-84
2022/05/20 04:17:01;;;;;;;13.90;12.50;;;;;;;16.99;74.59;100379.19;4988943;28;20194;-84
2022/05/20 04:19:31;;;;;;;12.88;11.55;;;;;;;17.00;74.19;100380.88;4988775;28;20073;-83
2022/05/20 04:22:01;;;;;;;14.43;12.93;;;;;;;17.01;73.83;100377.25;4969710;28;20050;-82
2022/05/20 04:24:28;;;;;;;15.82;12.77;;;;;;;17.04;74.05;100382.38;4987137;28;20055;-85
2022/05/20 04:26:55;;;;;;;13.68;12.10;;;;;;;17.04;74.29;100377.06;4986347;28;20576;-85
2022/05/20 04:29:21;;;;;;;12.60;11.38;;;;;;;17.07;74.16;100389.28;4986763;28;20058;-82
2022/05/20 04:31:50;;;;;;;13.90;12.40;;;;;;;17.07;74.00;100389.28;4985783;28;20109;-83
2022/05/20 04:34:17;;;;;;;15.40;12.30;;;;;;;17.08;73.86;100388.31;4968377;28;20599;-84
2022/05/20 04:36:45;;;;;;;14.30;11.70;;;;;;;17.10;74.06;100399.69;4987306;28;20101;-83
2022/05/20 04:39:11;;;;;;;14.13;12.68;;;;;;;17.11;74.07;100396.06;4982812;28;20051;-85
2022/05/20 04:47:16;;;;;;;14.80;13.30;;;;;;;17.12;72.94;100404.91;4977411;28;20046;-84
2022/05/20 04:49:43;;;;;;;16.20;13.23;;;;;;;17.14;73.97;100406.50;4981232;28;20109;-87
2022/05/20 04:52:10;;;;;;;14.98;13.30;;;;;;;17.14;73.85;100411.81;4981592;28;20058;-87
2022/05/20 04:54:52;;;;;;;15.18;12.35;;;;;;;17.15;73.96;100408.19;4984614;28;20058;-85
2022/05/20 04:57:20;;;;;;;16.20;14.43;;;;;;;17.16;73.44;100417.03;4967194;28;20066;-84
2022/05/20 04:59:47;;;;;;;15.15;13.45;;;;;;;17.18;73.96;100423.06;4967200;28;20053;-87
2022/05/20 05:02:14;;;;;;;17.15;14.15;;;;;;;17.19;73.99;100432.72;4983720;28;20090;-86
2022/05/20 05:04:41;;;;;;;15.85;14.02;;;;;;;17.22;73.98;100439.63;4985722;28;20050;-86
2022/05/20 05:07:09;;;;;;;18.50;13.77;;;;;;;17.24;74.01;100440.38;4966737;28;20054;-86
2022/05/20 05:09:38;;;;;;;14.45;12.60;;;;;;;17.26;74.52;100444.63;4984120;28;20220;-87
2022/05/20 05:12:06;;;;;;;16.27;13.73;;;;;;;17.29;73.93;100444.41;4975179;28;20340;-84
2022/05/20 05:14:46;;;;;;;16.92;14.00;;;;;;;17.29;72.85;100444.41;4974892;28;20051;-85
2022/05/20 05:18:09;;;;;;;15.75;14.15;;;;;;;17.30;73.39;100439.91;4975494;28;20050;-83
2022/05/20 05:20:07;;;;;;;16.13;13.05;;;;;;;17.31;73.83;100438.97;4975188;28;20082;-83
2022/05/20 05:22:34;;;;;;;14.13;12.57;;;;;;;17.33;74.35;100447.69;4975422;28;20102;-84
2022/05/20 05:25:08;;;;;;;15.20;12.50;;;;;;;17.35;74.32;100440.44;4973786;28;20089;-84
2022/05/20 05:27:35;;;;;;;14.73;13.13;;;;;;;17.39;74.54;100446.38;4974042;28;20061;-85
2022/05/20 05:30:02;;;;;;;14.82;13.30;;;;;;;17.43;74.45;100448.66;4974659;28;20088;-84
2022/05/20 05:32:29;;;;;;;17.40;12.82;;;;;;;17.48;74.58;100450.13;4973651;28;20047;-83
2022/05/20 05:34:56;;;;;;;14.30;12.55;;;;;;;17.54;74.29;100450.53;4956081;28;20063;-83
2022/05/20 05:37:22;;;;;;;16.13;12.55;;;;;;;17.57;73.99;100449.47;4971964;28;20183;-86
2022/05/20 05:39:49;;;;;;;15.85;12.60;;;;;;;17.63;73.26;100448.13;4972353;28;20110;-84
2022/05/20 05:42:16;;;;;;;15.25;11.57;;;;;;;17.66;73.34;100447.91;4975314;28;20062;-83
2022/05/20 05:44:42;;;;;;;15.00;12.07;;;;;;;17.69;72.72;100447.69;4975358;28;20050;-87
2022/05/20 05:47:09;;;;;;;13.55;11.40;;;;;;;17.69;71.86;100443.19;4958451;28;20050;-87
2022/05/20 05:49:36;;;;;;;15.52;10.43;;;;;;;17.70;71.60;100444.06;4975161;28;20054;-86
2022/05/20 05:52:02;;;;;;;11.35;10.25;;;;;;;17.68;71.23;100443.34;4974994;28;20497;-86
2022/05/20 05:54:30;;;;;;;13.05;9.90;;;;;;;17.67;71.37;100444.28;4957874;28;20063;-87
2022/05/20 05:57:03;;;;;;;16.02;11.73;;;;;;;17.65;71.61;100439.06;4973998;28;20051;-87
2022/05/20 05:59:31;;;;;;;17.38;12.05;;;;;;;17.67;72.11;100430.97;4957797;28;20496;-87
2022/05/20 06:02:02;;;;;;;11.80;10.60;;;;;;;17.67;71.19;100444.28;4973534;28;20058;-87
2022/05/20 06:04:29;;;;;;;11.93;10.48;;;;;;;17.69;72.03;100437.88;4975176;28;20497;-87
2022/05/20 06:07:03;;;;;;;15.10;10.45;;;;;;;17.72;72.07;100442.13;4974839;28;20094;-87
2022/05/20 06:09:31;;;;;;;12.02;10.50;;;;;;;17.74;71.81;100442.84;4957614;28;20055;-87
2022/05/20 06:11:58;;;;;;;12.55;11.32;;;;;;;17.75;71.68;100435.72;4974819;28;20271;-87
2022/05/20 06:14:24;;;;;;;13.60;11.63;;;;;;;17.74;71.54;100429.53;4974655;28;20062;-87
2022/05/20 06:16:51;;;;;;;14.32;11.60;;;;;;;17.74;71.09;100421.56;4974489;28;20118;-87
2022/05/20 06:19:17;;;;;;;16.05;12.13;;;;;;;17.74;71.62;100428.69;4957236;28;20055;-87
2022/05/20 06:21:44;;;;;;;15.45;12.45;;;;;;;17.74;71.99;100424.22;4974607;28;20050;-86
2022/05/20 06:24:10;;;;;;;19.08;12.15;;;;;;;17.77;71.48;100423.97;4957452;28;20058;-87
2022/05/20 06:26:37;;;;;;;12.65;11.05;;;;;;;17.79;71.32;100419.38;4974450;28;20047;-88
2022/05/20 06:29:05;;;;;;;12.52;10.52;;;;;;;17.78;70.74;100415.03;4974228;28;20106;-86
2022/05/20 06:31:33;;;;;;;11.82;9.35;;;;;;;17.79;70.54;100406.06;4956860;28;20059;-87
2022/05/20 06:34:00;;;;;;;12.43;10.00;;;;;;;17.79;70.16;100395.41;4974072;28;20055;-88
2022/05/20 06:41:58;;;;;;;14.10;10.35;;;;;;;17.80;70.86;100378.47;4974289;28;20113;-86
2022/05/20 06:44:27;;;;;;;13.25;10.43;;;;;;;17.81;70.32;100384.66;4974131;28;20061;-87
2022/05/20 06:46:53;;;;;;;11.00;9.75;;;;;;;17.79;69.80;100382.09;4974271;28;20098;-87
2022/05/20 06:49:20;;;;;;;11.75;8.88;;;;;;;17.78;70.31;100372.41;4972692;28;20054;-87
2022/05/20 06:51:49;;;;;;;15.23;10.48;;;;;;;17.78;70.86;100366.22;4973743;28;20398;-86
2022/05/20 06:54:16;;;;;;;11.80;10.57;;;;;;;17.78;71.11;100371.56;4956851;28;20047;-87
2022/05/20 06:56:44;;;;;;;14.15;11.15;;;;;;;17.79;70.81;100366.13;4972779;28;20425;-87
2022/05/20 06:59:12;;;;;;;12.32;10.57;;;;;;;17.83;71.40;100364.09;4972788;28;20141;-87
2022/05/20 07:01:39;;;;;;;14.13;11.35;;;;;;;17.86;71.25;100370.97;4973596;28;20047;-87
2022/05/20 07:04:24;;;;;;;12.65;10.55;;;;;;;17.90;71.45;100381.25;4973791;28;20406;-87
2022/05/20 07:06:51;;;;;;;11.32;10.23;;;;;;;17.93;71.23;100370.38;4973950;28;20069;-86
2022/05/20 07:09:17;;;;;;;11.68;10.02;;;;;;;17.97;71.17;100376.28;4956303;28;20055;-87
2022/05/20 07:11:44;;;;;;;11.07;9.98;;;;;;;18.01;70.72;100372.44;4973544;28;20073;-87
2022/05/20 07:14:10;;;;;;;11.40;9.23;;;;;;;18.04;70.87;100374.84;4973683;28;20591;-87
2022/05/20 07:16:37;;;;;;;9.38;8.15;;;;;;;18.08;71.03;100370.16;4972673;28;20444;-87
2022/05/20 07:19:05;;;;;;;9.60;8.70;;;;;;;18.12;71.22;100368.13;4973388;28;20504;-87
2022/05/20 07:21:32;;;;;;;12.65;8.18;;;;;;;18.14;70.60;100361.69;4972309;28;20055;-86
2022/05/20 07:24:00;;;;;;;8.85;7.78;;;;;;;18.19;70.53;100355.97;4973212;28;20469;-88
2022/05/20 07:26:27;;;;;;;9.63;7.53;;;;;;;18.23;70.80;100352.09;4973629;28;20105;-88
2022/05/20 07:28:54;;;;;;;7.55;6.68;;;;;;;18.28;70.22;100346.41;4973421;28;20117;-87
2022/05/20 07:31:23;;;;;;;7.10;6.32;;;;;;;18.34;70.18;100351.25;4973224;28;20057;-87
2022/05/20 07:33:51;;;;;;;8.02;6.35;;;;;;;18.38;69.48;100347.34;4972068;28;20047;-87
2022/05/20 07:36:18;;;;;;;7.70;6.43;;;;;;;18.44;69.59;100352.22;4971671;28;20047;-86
2022/05/20 07:38:44;;;;;;;6.03;4.95;;;;;;;18.48;69.56;100345.66;4973106;28;20059;-87
2022/05/20 07:41:12;;;;;;;7.95;6.03;;;;;;;18.52;69.30;100351.56;4973329;28;20059;-88
2022/05/20 07:43:39;;;;;;;7.90;5.35;;;;;;;18.58;69.14;100347.56;4971780;28;20062;-87
2022/05/20 07:46:06;;;;;;;9.55;6.68;;;;;;;18.62;68.93;100344.50;4973211;28;20124;-88
2022/05/20 07:48:33;;;;;;;10.80;7.15;;;;;;;18.68;68.15;100336.97;4972891;28;20080;-87
2022/05/20 07:51:05;;;;;;;7.80;6.47;;;;;;;18.72;68.11;100327.75;4972648;28;20480;-88
2022/05/20 07:53:37;;;;;;;7.60;5.78;;;;;;;18.77;67.38;100324.72;4972795;28;20050;-87
2022/05/20 07:56:10;;;;;;;7.97;6.30;;;;;;;18.83;67.64;100330.38;4971422;28;20496;-88
2022/05/20 07:58:44;;;;;;;9.65;6.78;;;;;;;18.88;66.56;100322.03;4971763;28;20101;-87
2022/05/20 08:01:20;;;;;;;8.80;5.43;;;;;;;18.95;67.43;100306.34;4971352;28;20054;-87
2022/05/20 08:06:40;;;;;;;8.13;5.78;;;;;;;19.11;69.21;100301.41;4972986;28;20051;-88
2022/05/20 08:09:07;;;;;;;10.50;5.60;;;;;;;19.20;69.13;100298.94;4971488;28;20402;-87
2022/05/20 08:11:34;;;;;;;6.50;5.22;;;;;;;19.29;69.28;100294.66;4971245;28;20050;-86
2022/05/20 08:14:01;;;;;;;5.55;4.90;;;;;;;19.38;69.14;100293.88;4972563;28;20539;-87
2022/05/20 08:16:28;;;;;;;8.00;5.43;;;;;;;19.49;68.62;100290.28;4972743;28;20097;-88
2022/05/20 08:18:54;;;;;;;5.32;4.05;;;;;;;19.57;67.53;100284.25;4971340;28;20058;-87
2022/05/20 08:21:21;;;;;;;6.88;4.75;;;;;;;19.66;66.89;100270.97;4972406;28;20054;-88
2022/05/20 08:23:48;;;;;;;7.00;4.72;;;;;;;19.74;66.42;100264.09;4970944;28;20105;-88
2022/05/20 08:26:17;;;;;;;5.20;4.20;;;;;;;19.81;66.44;100259.91;4971284;28;20075;-88
2022/05/20 08:28:45;;;;;;;8.77;4.63;;;;;;;19.88;66.44;100247.69;4972653;28;20079;-87
2022/05/20 08:31:12;;;;;;;7.28;4.85;;;;;;;19.97;67.60;100256.72;4972028;28;20125;-88
2022/05/20 08:33:39;;;;;;;5.85;4.65;;;;;;;20.07;67.41;100259.44;4971128;28;20078;-89
2022/05/20 08:36:05;;;;;;;7.97;4.68;;;;;;;20.19;66.89;100254.84;4972200;28;20070;-87
2022/05/20 08:38:32;;;;;;;4.97;4.13;;;;;;;20.31;66.56;100245.69;4972018;28;20046;-88
2022/05/20 08:41:00;;;;;;;5.18;4.30;;;;;;;20.41;66.76;100239.53;4971800;28;20054;-88
2022/05/20 08:43:29;;;;;;;7.68;5.55;;;;;;;20.53;66.73;100237.56;4972068;28;20050;-88
2022/05/20 08:45:56;;;;;;;9.65;5.88;;;;;;;20.63;67.73;100237.56;4972050;28;20061;-87
2022/05/20 08:48:23;;;;;;;10.57;6.10;;;;;;;20.73;67.21;100242.88;4971955;28;20061;-88
2022/05/20 08:50:55;;;;;;;7.95;5.25;;;;;;;20.83;66.69;100233.03;4971646;28;20054;-87
2022/05/20 08:53:32;;;;;;;9.77;6.22;;;;;;;20.91;65.31;100241.22;4970490;28;20061;-85
2022/05/20 08:56:02;;;;;;;6.68;6.07;;;;;;;21.03;66.83;100238.34;4970618;28;20066;-87
2022/05/20 08:58:29;;;;;;;8.40;6.18;;;;;;;21.15;67.34;100242.56;4972016;28;20058;-88
2022/05/20 09:00:56;;;;;;;6.05;5.10;;;;;;;21.24;66.73;100237.31;4970172;28;20093;-87
2022/05/20 09:03:26;;;;;;;6.25;5.60;;;;;;;21.33;66.87;100239.13;4970421;28;20050;-88
2022/05/20 09:06:06;;;;;;;7.60;4.78;;;;;;;21.39;64.53;100233.19;4971494;28;20054;-88
2022/05/20 09:08:33;;;;;;;8.68;5.22;;;;;;;21.53;67.22;100233.72;4971692;28;20496;-87
2022/05/20 09:11:02;;;;;;;7.35;5.10;;;;;;;21.63;66.33;100228.31;4971886;28;20062;-87
2022/05/20 09:16:28;;;;;;;4.95;3.33;;;;;;;21.81;62.74;100228.38;4971223;28;20094;-88
2022/05/20 09:19:04;;;;;;;5.35;2.45;;;;;;;21.89;61.14;100225.78;4969817;28;20055;-87
2022/05/20 09:21:38;;;;;;;2.97;2.20;;;;;;;21.97;60.73;100217.84;4971262;28;20109;-88
2022/05/20 09:24:13;;;;;;;3.75;2.10;;;;;;;22.07;61.54;100208.88;4970181;28;20050;-87
2022/05/20 09:26:51;;;;;;;5.50;2.42;;;;;;;22.15;58.75;100210.81;4970097;28;20104;-86
2022/05/20 09:29:32;;;;;;;3.70;2.60;;;;;;;22.22;61.07;100209.19;4971636;28;20058;-87
2022/05/20 09:32:33;;;;;;;4.63;2.45;;;;;;;22.30;60.61;100195.88;4970052;28;20047;-88
2022/05/20 09:35:04;;;;;;;3.05;2.10;;;;;;;22.41;60.67;100192.13;4971315;28;20062;-88
2022/05/20 09:37:34;;;;;;;11.43;2.70;;;;;;;22.47;58.00;100191.47;4970240;28;20563;-87
2022/05/20 09:40:37;;;;;;;4.78;2.30;;;;;;;22.49;57.04;100181.47;4971663;28;20066;-88
2022/05/20 09:43:31;;;;;;;2.40;2.20;;;;;;;22.57;57.25;100171.84;4971072;28;20051;-87
2022/05/20 09:46:00;;;;;;;4.05;2.60;;;;;;;22.66;57.81;100165.53;4954010;28;20050;-87
2022/05/20 09:48:34;;;;;;;5.03;2.33;;;;;;;22.68;56.26;100163.50;4970270;28;20055;-87
2022/05/20 09:51:07;;;;;;;;;;;;;;;22.74;60.51;100157.53;4971229;28;20055;-86
2022/05/20 09:53:39;;;;;;;4.93;2.97;;;;;;;22.87;60.50;100162.47;4971262;28;20307;-88
2022/05/20 09:56:24;;;;;;;3.85;3.00;;;;;;;22.95;57.92;100164.34;4971543;28;20058;-88
2022/05/20 09:59:03;;;;;;;9.13;3.53;;;;;;;23.01;57.85;100171.78;4971347;28;20057;-87
2022/05/20 10:01:31;;;;;;;24.63;7.38;;;;;;;23.12;60.18;100170.66;4969759;28;20055;-88
2022/05/20 10:04:05;;;;;;;6.88;2.83;;;;;;;23.23;58.50;100164.16;4971903;28;20066;-87
2022/05/20 10:06:37;;;;;;;4.82;3.15;;;;;;;23.36;60.03;100160.22;4969754;28;20499;-88
2022/05/20 10:09:27;;;;;;;4.95;3.60;;;;;;;23.48;58.27;100155.41;4971079;28;20055;-87
2022/05/20 10:12:08;;;;;;;5.53;3.35;;;;;;;23.65;58.16;100157.13;4969746;28;20077;-87
2022/05/20 10:14:56;;;;;;;6.95;3.53;;;;;;;23.80;57.55;100154.66;4970844;28;20050;-88
2022/05/20 10:17:51;;;;;;;5.35;2.80;;;;;;;23.94;57.76;100138.88;4970797;28;20055;-88
2022/05/20 10:20:34;;;;;;;5.70;3.38;;;;;;;24.07;57.51;100141.09;4954316;28;20049;-87
2022/05/20 10:23:10;;;;;;;7.93;4.28;;;;;;;24.20;58.41;100143.31;4970720;28;20047;-88
2022/05/20 10:26:03;;;;;;;8.88;4.75;;;;;;;24.27;56.86;100136.25;4953909;28;20062;-88
2022/05/20 10:34:52;;;;;;;6.28;4.13;;;;;;;24.65;58.39;100116.00;4974491;28;20564;-89
2022/05/20 10:37:34;;;;;;;7.35;4.45;;;;;;;24.70;56.79;100106.41;4974361;28;20051;-88
2022/05/20 10:40:07;;;;;;;6.73;4.10;;;;;;;24.87;59.12;100102.88;4957320;28;20059;-90
2022/05/20 10:42:59;;;;;;;6.68;4.55;;;;;;;24.97;57.33;100100.81;4956924;28;20055;-87
2022/05/20 10:48:35;;;;;;;5.72;4.03;;;;;;;25.53;59.96;100099.84;4973980;28;20061;-88
2022/05/20 10:51:28;;;;;;;8.80;5.45;;;;;;;25.95;57.17;100086.13;4973934;28;20054;-88
2022/05/20 10:53:55;;;;;;;7.90;4.78;;;;;;;26.46;61.58;100084.72;4974292;28;20050;-89
2022/05/20 10:56:41;;;;;;;8.43;4.70;;;;;;;26.93;56.17;100070.00;4956515;28;20547;-89
2022/05/20 10:59:42;;;;;;;6.18;4.40;;;;;;;27.52;55.27;100056.56;4973763;28;20409;-87
2022/05/20 11:02:28;;;;;;;7.35;4.78;;;;;;;28.15;55.49;100043.41;4972981;28;20054;-88
2022/05/20 11:05:16;;;;;;;6.07;4.10;;;;;;;28.74;54.70;100036.72;4974222;28;20058;-89
2022/05/20 11:08:05;;;;;;;7.50;3.78;;;;;;;29.29;52.17;100028.81;4956635;28;20472;-88
2022/05/20 11:10:47;;;;;;;6.88;4.45;;;;;;;29.78;51.77;100013.22;4972765;28;20054;-89
2022/05/20 11:13:42;;;;;;;5.20;3.67;;;;;;;30.17;50.84;99999.88;4972899;28;20070;-88
2022/05/20 11:16:31;;;;;;;5.70;3.25;;;;;;;30.51;50.09;99988.94;4956603;28;20360;-87
2022/05/20 11:19:04;;;;;;;4.13;3.45;;;;;;;30.79;49.64;99975.03;4972826;28;20054;-88
2022/05/20 11:21:34;;;;;;;6.18;3.58;;;;;;;31.06;48.83;99969.47;4956382;28;20327;-88
2022/05/20 11:24:19;;;;;;;5.70;3.40;;;;;;;31.32;50.74;99975.81;4956695;28;20117;-87
2022/05/20 11:27:00;;;;;;;5.40;3.47;;;;;;;31.59;48.26;99967.44;4973717;28;20496;-90
2022/05/20 11:29:37;;;;;;;7.53;3.25;;;;;;;31.83;48.01;99966.81;4973472;28;20117;-90
2022/05/20 11:32:07;;;;;;;4.47;3.20;;;;;;;32.08;48.62;99958.66;4973531;28;20054;-90
2022/05/20 11:34:40;;;;;;;4.93;3.15;;;;;;;32.28;47.20;99962.22;4973010;28;20058;-90
2022/05/20 11:37:28;;;;;;;3.20;2.50;;;;;;;32.47;47.70;99949.44;4973886;28;20050;-90
2022/05/20 11:40:21;;;;;;;2.53;2.33;;;;;;;32.69;47.53;99938.03;4973813;28;20054;-89
2022/05/20 11:43:01;;;;;;;;;;;;;;;32.95;52.22;99927.81;4972611;28;20050;-88
2022/05/20 11:45:34;;;;;;;2.53;1.75;;;;;;;33.18;44.38;99918.91;4973865;28;19922;-89
2022/05/20 11:48:29;;;;;;;4.55;1.70;;;;;;;33.26;44.83;99909.56;4973684;28;20051;-91
2022/05/20 11:51:10;;;;;;;3.08;1.95;;;;;;;33.40;45.40;99902.81;4973713;28;20097;-90
2022/05/20 11:53:59;;;;;;;3.75;2.40;;;;;;;33.58;46.03;99897.50;4958092;28;20101;-88
2022/05/20 11:56:42;;;;;;;2.80;2.00;;;;;;;33.77;44.49;99882.66;4961360;28;20101;-88
2022/05/20 11:59:16;;;;;;;;;;;;;;;33.93;50.36;99875.63;4973694;28;20393;-88
2022/05/20 12:01:50;;;;;;;3.88;2.35;;;;;;;34.18;43.93;99869.06;4972769;28;19933;-88
2022/05/20 12:04:19;;;;;;;4.25;2.13;;;;;;;34.35;45.28;99856.53;4971929;28;20054;-88
2022/05/20 12:06:52;;;;;;;4.05;2.42;;;;;;;34.42;44.11;99847.09;4972946;28;20066;-88
2022/05/20 12:09:37;;;;;;;5.32;2.00;;;;;;;34.50;43.49;99836.88;4971604;28;20061;-88
2022/05/20 12:12:12;;;;;;;2.40;2.20;;;;;;;34.64;43.48;99827.31;4972423;28;20097;-87